Time;durP1;ratioP1;P1;durP2;ratioP2;P2;SDS_P1;SDS_P2;PMS_P1;PMS_P2;Temp;Humidity;BMP_temperature;BMP_pressure;BME280_temperature;BME280_humidity;BME280_pressure;Samples;Min_cycle;Max_cycle;Signal;HPM_P1;HPM_P2
2022/12/26 00:01:33;;;;;;;14.75;5.72;;;;;;;6.96;67.98;100656.34;5070075;28;20032;-42
2022/12/26 00:03:58;;;;;;;10.57;5.78;;;;;;;6.88;67.93;100665.06;5070688;28;20106;-43
2022/12/26 00:06:26;;;;;;;13.15;5.22;;;;;;;6.73;68.71;100669.28;5070553;28;20028;-43
2022/12/26 00:08:52;;;;;;;11.32;6.00;;;;;;;6.68;68.71;100675.00;5069826;28;20098;-43
2022/12/26 00:11:19;;;;;;;12.77;6.68;;;;;;;6.33;69.46;100670.63;5070867;28;20108;-43
2022/12/26 00:13:45;;;;;;;15.95;7.10;;;;;;;6.40;70.24;100677.81;5070733;28;20055;-42
2022/12/26 00:16:14;;;;;;;12.55;6.88;;;;;;;6.36;70.32;100676.44;5070295;28;20060;-43
2022/12/26 00:18:40;;;;;;;14.02;6.55;;;;;;;6.14;70.70;100680.38;5070403;28;20465;-43
2022/12/26 00:21:07;;;;;;;11.23;6.03;;;;;;;6.29;70.67;100682.50;5070622;28;20040;-42
2022/12/26 00:23:33;;;;;;;11.50;5.80;;;;;;;6.26;70.77;100681.81;5070394;28;20376;-42
2022/12/26 00:26:04;;;;;;;9.85;5.60;;;;;;;6.39;70.31;100688.53;5070371;28;20133;-42
2022/12/26 00:28:29;;;;;;;11.50;6.18;;;;;;;6.62;69.72;100694.97;5069644;28;20033;-43
2022/12/26 00:30:55;;;;;;;10.10;5.72;;;;;;;6.19;70.61;100693.97;5070415;28;20036;-43
2022/12/26 00:33:20;;;;;;;13.10;6.90;;;;;;;6.34;69.73;100704.84;5070284;28;20031;-43
2022/12/26 00:35:45;;;;;;;13.00;6.90;;;;;;;6.16;70.31;100701.38;5069907;28;20039;-43
2022/12/26 00:38:11;;;;;;;13.13;6.95;;;;;;;5.79;72.22;100703.16;5069906;28;20012;-43
2022/12/26 00:40:42;;;;;;;11.23;6.18;;;;;;;5.79;72.44;100705.78;5070079;28;20119;-43
2022/12/26 00:43:08;;;;;;;11.98;6.93;;;;;;;6.07;71.74;100701.31;5070385;28;20115;-42
2022/12/26 00:45:33;;;;;;;11.98;6.82;;;;;;;5.98;71.36;100707.50;5069924;28;20029;-42
2022/12/26 00:47:59;;;;;;;11.43;6.78;;;;;;;6.21;71.00;100705.25;5069773;28;20021;-43
2022/12/26 00:50:24;;;;;;;12.88;6.90;;;;;;;6.24;70.98;100710.22;5070113;28;20027;-42
2022/12/26 00:52:49;;;;;;;13.40;6.82;;;;;;;5.94;72.04;100721.09;5069737;28;20035;-42
2022/12/26 00:55:15;;;;;;;14.55;7.10;;;;;;;5.68;73.00;100716.56;5069902;28;20021;-42
2022/12/26 00:57:40;;;;;;;13.43;6.70;;;;;;;5.68;73.26;100713.91;5069857;28;20028;-42
2022/12/26 01:00:06;;;;;;;13.18;6.78;;;;;;;5.70;73.70;100711.94;5069777;28;20029;-43
2022/12/26 01:02:38;;;;;;;13.60;6.80;;;;;;;5.73;73.06;100698.47;5069961;28;20030;-43
2022/12/26 01:05:08;;;;;;;10.57;6.65;;;;;;;5.88;72.67;100699.63;5069305;28;20496;-43
2022/12/26 01:07:35;;;;;;;11.43;6.60;;;;;;;5.70;73.62;100700.56;5069710;28;20032;-42
2022/12/26 01:10:05;;;;;;;13.85;7.38;;;;;;;5.81;72.98;100711.75;5069758;28;20044;-43
2022/12/26 01:12:30;;;;;;;14.15;7.03;;;;;;;5.91;72.56;100700.28;5073193;28;20071;-43
2022/12/26 01:14:57;;;;;;;13.20;7.20;;;;;;;5.74;72.70;100708.03;5073570;28;20586;-43
2022/12/26 01:17:23;;;;;;;12.05;6.90;;;;;;;5.64;73.22;100696.72;5073919;28;20029;-42
2022/12/26 01:19:49;;;;;;;11.73;7.00;;;;;;;5.58;73.50;100700.75;5073699;28;20094;-43
2022/12/26 01:22:14;;;;;;;14.88;7.28;;;;;;;5.54;73.95;100714.41;5074238;28;20031;-43
2022/12/26 01:24:40;;;;;;;10.57;6.70;;;;;;;5.69;73.22;100718.19;5073742;28;20417;-43
2022/12/26 01:27:05;;;;;;;14.00;7.00;;;;;;;5.61;73.50;100724.22;5073185;28;20032;-43
2022/12/26 01:29:31;;;;;;;11.55;6.70;;;;;;;5.57;73.59;100728.13;5073331;28;20020;-42
2022/12/26 01:31:56;;;;;;;13.00;7.03;;;;;;;5.34;74.38;100730.31;5073844;28;20036;-43
2022/12/26 01:34:22;;;;;;;12.88;7.13;;;;;;;5.39;73.44;100735.19;5073290;28;20020;-42
2022/12/26 01:36:47;;;;;;;12.75;7.03;;;;;;;5.06;74.58;100734.72;5073373;28;20100;-43
2022/12/26 01:39:13;;;;;;;12.60;6.97;;;;;;;5.20;74.58;100726.38;5053387;28;20017;-42
2022/12/26 01:41:39;;;;;;;12.73;6.88;;;;;;;5.07;74.72;100726.69;5053298;28;20029;-41
2022/12/26 01:44:26;;;;;;;11.95;6.80;;;;;;;5.13;74.81;100727.09;5053598;28;20392;-42
2022/12/26 01:46:52;;;;;;;15.65;7.45;;;;;;;5.36;74.98;100727.56;5052765;28;20036;-42
2022/12/26 01:49:36;;;;;;;10.75;6.78;;;;;;;5.34;74.01;100729.50;5052926;28;20029;-42
2022/12/26 01:52:08;;;;;;;13.38;6.75;;;;;;;5.07;74.41;100734.59;5053568;28;20082;-42
2022/12/26 01:54:38;;;;;;;15.63;7.25;;;;;;;4.98;75.11;100731.97;5053159;28;20490;-43
2022/12/26 01:57:08;;;;;;;14.60;7.57;;;;;;;5.02;74.90;100744.72;5052734;28;20020;-43
2022/12/26 01:59:38;;;;;;;11.70;7.03;;;;;;;4.99;75.01;100736.28;5053140;28;20077;-43
2022/12/26 02:02:04;;;;;;;15.25;8.20;;;;;;;5.07;74.93;100724.03;5053100;28;20023;-43
2022/12/26 02:07:18;;;;;;;13.02;8.10;;;;;;;4.87;76.02;100730.34;5052683;28;20186;-43
2022/12/26 02:09:44;;;;;;;17.05;8.23;;;;;;;4.71;77.21;100733.56;5065701;28;20527;-43
2022/12/26 02:12:19;;;;;;;15.75;8.20;;;;;;;4.57;77.77;100736.63;5072836;28;20021;-43
2022/12/26 02:14:46;;;;;;;17.38;7.72;;;;;;;4.55;78.16;100731.50;5072398;28;20020;-43
2022/12/26 02:17:11;;;;;;;14.68;7.88;;;;;;;4.84;76.95;100738.53;5072628;28;20365;-43
2022/12/26 02:19:43;;;;;;;14.13;7.68;;;;;;;4.87;76.21;100728.53;5072580;28;20056;-43
2022/12/26 02:22:24;;;;;;;14.80;8.10;;;;;;;4.67;77.42;100748.81;5072599;28;20032;-43
2022/12/26 02:25:20;;;;;;;14.52;8.25;;;;;;;4.82;77.14;100745.78;5071990;28;20442;-43
2022/12/26 02:27:57;;;;;;;15.77;8.00;;;;;;;4.95;76.43;100741.03;5072149;28;20033;-43
2022/12/26 02:30:44;;;;;;;16.80;8.35;;;;;;;5.18;76.06;100740.66;5072439;28;20021;-43
2022/12/26 02:33:18;;;;;;;17.25;7.82;;;;;;;5.05;74.77;100746.28;5072505;28;20024;-43
2022/12/26 02:35:43;;;;;;;15.27;8.40;;;;;;;4.81;76.49;100737.00;5072195;28;20035;-43
2022/12/26 02:38:27;;;;;;;15.80;8.23;;;;;;;4.42;78.13;100744.13;5072309;28;20021;-43
2022/12/26 02:41:41;;;;;;;13.93;8.35;;;;;;;4.61;77.92;100733.56;5072272;28;20024;-43
2022/12/26 02:47:18;;;;;;;18.70;8.38;;;;;;;4.70;76.74;100731.88;5029406;28;20036;-43
2022/12/26 03:14:22;;;;;;;18.17;8.77;;;;;;;4.69;77.31;100724.97;5071849;28;19911;-43
2022/12/26 03:19:56;;;;;;;16.48;8.60;;;;;;;4.68;77.24;100724.13;5071458;28;20075;-43
2022/12/26 03:22:32;;;;;;;19.33;9.48;;;;;;;4.56;77.06;100709.44;5071756;28;20028;-43
2022/12/26 03:27:46;;;;;;;21.05;9.65;;;;;;;4.54;76.59;100724.56;5070918;28;20036;-41
2022/12/26 03:32:56;;;;;;;17.45;9.48;;;;;;;4.59;76.33;100724.97;5071275;28;20158;-42
2022/12/26 03:35:24;;;;;;;17.95;9.65;;;;;;;4.55;76.59;100712.19;5069134;28;20021;-42
2022/12/26 03:38:03;;;;;;;20.48;9.25;;;;;;;4.18;77.86;100711.09;5071313;28;20099;-42
2022/12/26 04:19:31;;;;;;;25.17;12.23;;;;;;;4.30;78.64;100760.09;5059581;28;20141;-42
2022/12/26 04:45:00;;;;;;;23.08;11.73;;;;;;;3.32;82.59;100774.78;5070172;28;20062;-43
2022/12/26 04:47:26;;;;;;;23.02;12.25;;;;;;;3.48;82.37;100776.94;5067501;28;20636;-43
2022/12/26 04:55:19;;;;;;;19.10;10.65;;;;;;;3.55;81.34;100779.03;5069774;28;20047;-43
2022/12/26 04:57:45;;;;;;;16.50;9.82;;;;;;;3.44;81.63;100788.66;5070037;28;20427;-43
2022/12/26 05:00:11;;;;;;;17.80;9.18;;;;;;;3.42;81.59;100785.34;5069752;28;20036;-43
2022/12/26 05:10:49;;;;;;;12.90;7.75;;;;;;;3.76;79.18;100794.78;5069819;28;20161;-43
2022/12/26 05:13:14;;;;;;;14.82;8.10;;;;;;;3.51;81.18;100794.25;5069309;28;20119;-43
2022/12/26 05:29:27;;;;;;;17.75;10.63;;;;;;;3.61;80.11;100813.53;5069464;28;20071;-42
2022/12/26 05:31:52;;;;;;;17.23;8.88;;;;;;;3.75;79.67;100819.41;5069598;28;20441;-42
2022/12/26 05:34:20;;;;;;;15.20;8.50;;;;;;;3.47;80.00;100816.53;5069534;28;20027;-44
2022/12/26 05:36:49;;;;;;;13.68;8.07;;;;;;;3.38;80.47;100819.97;5069526;28;20024;-43
2022/12/26 05:39:15;;;;;;;14.95;8.48;;;;;;;3.34;80.84;100816.75;5069739;28;20103;-43
2022/12/26 05:41:40;;;;;;;19.40;9.93;;;;;;;3.45;80.59;100823.75;5069509;28;20538;-43
2022/12/26 05:44:07;;;;;;;49.05;24.67;;;;;;;3.48;79.52;100815.56;5068703;28;20024;-43
2022/12/26 05:46:33;;;;;;;38.13;18.75;;;;;;;3.45;79.36;100803.50;5069632;28;20495;-43
2022/12/26 05:48:58;;;;;;;30.23;13.88;;;;;;;4.30;90.96;100818.06;5069534;28;20036;-43
2022/12/26 05:51:24;;;;;;;17.55;10.55;;;;;;;3.95;78.36;100825.59;5069732;28;20029;-43
2022/12/26 05:53:50;;;;;;;17.10;8.40;;;;;;;3.75;81.24;100824.69;5069119;28;20035;-43
2022/12/26 05:56:17;;;;;;;15.50;7.90;;;;;;;3.69;81.02;100826.91;5068984;28;20075;-43
2022/12/26 05:58:43;;;;;;;15.65;7.47;;;;;;;3.71;81.44;100824.97;5070667;28;20437;-43
2022/12/26 06:01:11;;;;;;;13.20;7.43;;;;;;;3.34;81.65;100806.22;5072515;28;20031;-43
2022/12/26 06:03:38;;;;;;;16.13;8.00;;;;;;;3.23;82.30;100819.44;5072031;28;20032;-43
2022/12/26 06:06:05;;;;;;;19.50;8.27;;;;;;;3.39;83.87;100819.84;5071753;28;20020;-43
2022/12/26 06:08:30;;;;;;;18.30;8.38;;;;;;;3.61;82.30;100824.06;5072147;28;20185;-43
2022/12/26 06:10:56;;;;;;;17.33;8.10;;;;;;;3.78;82.12;100820.00;5071649;28;20439;-44
2022/12/26 06:13:22;;;;;;;14.32;8.48;;;;;;;4.05;81.93;100831.72;5071867;28;20044;-43
2022/12/26 06:15:47;;;;;;;17.15;8.32;;;;;;;4.30;78.96;100828.59;5072101;28;20078;-42
2022/12/26 06:18:13;;;;;;;17.48;8.18;;;;;;;4.61;77.85;100819.75;5071825;28;20048;-43
2022/12/26 06:20:39;;;;;;;18.95;8.60;;;;;;;4.70;79.27;100832.94;5071833;28;20036;-43
2022/12/26 06:23:04;;;;;;;28.00;13.45;;;;;;;4.48;76.67;100827.94;5071838;28;20036;-42
2022/12/26 06:25:29;;;;;;;23.48;12.05;;;;;;;5.45;82.09;100827.84;5071448;28;20028;-41
2022/12/26 06:27:55;;;;;;;17.15;9.48;;;;;;;6.40;76.95;100843.56;5071838;28;20024;-42
2022/12/26 06:30:20;;;;;;;17.80;9.10;;;;;;;6.69;66.98;100842.50;5072133;28;20082;-42
2022/12/26 06:32:46;;;;;;;18.42;9.35;;;;;;;6.24;67.33;100850.34;5072559;28;20024;-43
2022/12/26 06:35:11;;;;;;;17.98;9.43;;;;;;;5.76;69.46;100839.97;5071916;28;20508;-42
2022/12/26 06:37:37;;;;;;;20.02;11.75;;;;;;;5.42;70.55;100841.31;5072267;28;20036;-42
2022/12/26 06:40:03;;;;;;;23.10;13.07;;;;;;;4.90;73.74;100841.66;5071983;28;20025;-43
2022/12/26 06:42:28;;;;;;;27.73;15.27;;;;;;;4.90;75.75;100846.94;5069645;28;20036;-42
2022/12/26 06:44:54;;;;;;;20.65;11.60;;;;;;;5.16;73.91;100850.81;5070550;28;20029;-43
2022/12/26 06:47:19;;;;;;;29.45;15.63;;;;;;;5.24;76.05;100850.94;5071342;28;20032;-43
2022/12/26 06:49:44;;;;;;;27.65;15.55;;;;;;;5.66;75.33;100855.84;5071526;28;20028;-42
2022/12/26 06:52:13;;;;;;;27.52;12.18;;;;;;;6.24;72.86;100868.84;5072057;28;20027;-43
2022/12/26 06:54:39;;;;;;;18.63;10.30;;;;;;;6.46;69.20;100859.63;5070590;28;20070;-43
2022/12/26 06:57:04;;;;;;;22.60;11.60;;;;;;;6.65;68.96;100863.16;5071382;28;20266;-40
2022/12/26 06:59:30;;;;;;;21.05;10.90;;;;;;;6.72;68.14;100856.28;5070887;28;20024;-43
2022/12/26 07:01:55;;;;;;;22.58;11.40;;;;;;;6.88;68.05;100858.22;5070997;28;20059;-42
2022/12/26 07:04:21;;;;;;;19.83;12.13;;;;;;;7.28;66.87;100851.59;5070669;28;20017;-43
2022/12/26 07:06:46;;;;;;;21.63;11.18;;;;;;;7.57;66.89;100842.50;5070154;28;20107;-41
2022/12/26 07:09:15;;;;;;;24.25;14.35;;;;;;;8.59;63.23;100851.38;5070163;28;20051;-41
2022/12/26 07:11:44;;;;;;;27.90;14.27;;;;;;;8.20;63.17;100863.31;5071520;28;20051;-42
2022/12/26 07:14:09;;;;;;;25.42;14.75;;;;;;;7.74;64.62;100864.63;5070587;28;20024;-42
2022/12/26 07:16:37;;;;;;;25.58;13.30;;;;;;;7.62;64.81;100856.94;5070982;28;20023;-42
2022/12/26 07:19:02;;;;;;;32.28;14.95;;;;;;;7.54;66.19;100856.03;5070770;28;20045;-42
2022/12/26 07:21:28;;;;;;;30.05;14.48;;;;;;;8.26;65.28;100864.50;5071552;28;20032;-42
2022/12/26 07:23:54;;;;;;;43.63;19.83;;;;;;;8.86;62.05;100866.16;5071460;28;20515;-43
2022/12/26 07:26:21;;;;;;;38.70;20.13;;;;;;;8.70;62.55;100876.75;5069018;28;20643;-42
2022/12/26 07:28:46;;;;;;;29.40;14.82;;;;;;;8.88;61.76;100882.75;5070685;28;20443;-43
2022/12/26 07:31:21;;;;;;;30.00;14.90;;;;;;;8.95;61.05;100885.59;5071351;28;20036;-42
2022/12/26 07:33:49;;;;;;;30.33;15.63;;;;;;;8.86;61.18;100873.28;5071383;28;20025;-43
2022/12/26 07:36:15;;;;;;;22.40;12.90;;;;;;;9.61;58.79;100875.72;5070713;28;20035;-43
2022/12/26 07:38:40;;;;;;;22.05;11.70;;;;;;;9.88;58.05;100873.66;5070953;28;20025;-42
2022/12/26 07:43:50;;;;;;;24.10;12.70;;;;;;;10.14;57.77;100879.53;5070749;28;20154;-43
2022/12/26 07:46:16;;;;;;;40.55;20.45;;;;;;;9.81;58.93;100886.00;5070747;28;20032;-43
2022/12/26 07:48:41;;;;;;;30.40;16.52;;;;;;;9.86;59.15;100888.94;5070029;28;20021;-43
2022/12/26 07:51:07;;;;;;;27.20;14.27;;;;;;;9.74;58.60;100885.84;5070887;28;20027;-44
2022/12/26 07:53:32;;;;;;;25.58;13.48;;;;;;;10.05;58.33;100899.22;5071399;28;20029;-42
2022/12/26 07:55:58;;;;;;;23.35;13.38;;;;;;;10.15;57.32;100893.69;5070414;28;20404;-42
2022/12/26 07:58:24;;;;;;;23.35;13.43;;;;;;;10.08;58.40;100901.50;5070875;28;20016;-43
2022/12/26 08:00:49;;;;;;;32.85;17.85;;;;;;;10.46;55.96;100895.56;5070379;28;20017;-43
2022/12/26 08:03:15;;;;;;;24.48;14.30;;;;;;;10.45;56.41;100904.53;5070733;28;20016;-42
2022/12/26 08:05:44;;;;;;;27.42;14.70;;;;;;;10.56;55.23;100902.31;5070348;28;20525;-43
2022/12/26 08:08:09;;;;;;;17.90;10.93;;;;;;;10.98;54.38;100905.53;5070312;28;20028;-43
2022/12/26 08:10:35;;;;;;;24.25;11.70;;;;;;;11.12;54.34;100896.78;5070025;28;20029;-43
2022/12/26 08:13:00;;;;;;;26.80;15.25;;;;;;;11.20;53.40;100895.06;5070399;28;20021;-42
2022/12/26 08:15:26;;;;;;;28.40;15.73;;;;;;;11.45;53.94;100888.50;5070081;28;20033;-42
2022/12/26 08:17:51;;;;;;;24.92;13.57;;;;;;;11.43;52.81;100887.03;5069852;28;20044;-42
2022/12/26 08:20:16;;;;;;;27.67;13.18;;;;;;;11.71;52.09;100896.09;5069888;28;20029;-42
2022/12/26 08:22:42;;;;;;;19.27;12.07;;;;;;;11.59;52.07;100896.69;5069560;28;20082;-43
2022/12/26 08:25:08;;;;;;;27.85;12.07;;;;;;;11.61;52.47;100897.34;5070017;28;20081;-43
2022/12/26 08:27:34;;;;;;;22.65;12.57;;;;;;;11.32;52.99;100894.44;5069276;28;20027;-43
2022/12/26 08:29:59;;;;;;;21.50;12.85;;;;;;;11.72;51.60;100888.91;5069497;28;20458;-42
2022/12/26 08:32:24;;;;;;;23.75;12.90;;;;;;;11.80;52.08;100890.66;5070374;28;20029;-42
2022/12/26 08:34:50;;;;;;;24.85;14.43;;;;;;;12.11;50.32;100887.84;5069654;28;20529;-42
2022/12/26 08:37:15;;;;;;;22.35;13.85;;;;;;;11.95;51.31;100882.69;5069727;28;20021;-42
2022/12/26 08:39:41;;;;;;;30.10;15.43;;;;;;;11.80;51.89;100880.81;5068022;28;20353;-42
2022/12/26 08:42:06;;;;;;;27.65;15.52;;;;;;;11.92;51.20;100882.03;5050863;28;20146;-42
2022/12/26 08:44:32;;;;;;;28.00;15.45;;;;;;;12.00;50.74;100882.97;5053129;28;20661;-42
2022/12/26 08:46:57;;;;;;;30.63;15.65;;;;;;;11.84;50.48;100881.25;5067581;28;20021;-42
2022/12/26 08:49:22;;;;;;;26.30;15.00;;;;;;;11.84;51.52;100874.13;5068894;28;20028;-42
2022/12/26 08:51:48;;;;;;;27.45;15.20;;;;;;;11.94;50.61;100873.88;5069390;28;20028;-42
2022/12/26 08:54:13;;;;;;;25.27;14.00;;;;;;;12.43;53.37;100873.25;5069987;28;20020;-42
2022/12/26 08:56:39;;;;;;;23.05;14.23;;;;;;;12.89;51.42;100875.56;5069875;28;20522;-42
2022/12/26 08:59:04;;;;;;;22.95;13.70;;;;;;;13.20;53.24;100858.34;5069674;28;20616;-43
2022/12/26 09:01:30;;;;;;;25.50;14.55;;;;;;;13.74;50.21;100859.56;5069709;28;20025;-42
2022/12/26 09:04:01;;;;;;;26.08;14.02;;;;;;;13.41;48.46;100854.84;5069680;28;20020;-43
2022/12/26 09:06:26;;;;;;;25.75;13.68;;;;;;;13.35;48.63;100852.13;5069661;28;20361;-42
2022/12/26 09:08:52;;;;;;;21.15;13.27;;;;;;;13.17;47.89;100855.22;5068703;28;20044;-42
2022/12/26 09:11:21;;;;;;;22.45;11.70;;;;;;;13.26;49.06;100846.06;5069009;28;20025;-43
2022/12/26 09:13:47;;;;;;;42.40;25.10;;;;;;;13.16;49.65;100851.75;5069281;28;20117;-43
2022/12/26 09:16:19;;;;;;;24.60;13.60;;;;;;;12.76;49.23;100851.41;5069080;28;20411;-43
2022/12/26 09:18:45;;;;;;;21.08;12.63;;;;;;;12.93;48.80;100841.28;5069524;28;20044;-44
2022/12/26 09:21:12;;;;;;;28.65;17.08;;;;;;;12.50;49.86;100831.41;5069616;28;20392;-43
2022/12/26 09:23:40;;;;;;;23.23;13.32;;;;;;;12.78;49.08;100828.00;5069544;28;20028;-41
2022/12/26 09:26:09;;;;;;;21.63;13.02;;;;;;;12.72;49.18;100828.75;5069117;28;20024;-42
2022/12/26 09:28:35;;;;;;;22.70;14.20;;;;;;;12.74;48.72;100815.19;5069243;28;20512;-42
2022/12/26 09:31:08;;;;;;;23.67;12.52;;;;;;;12.53;49.05;100822.22;5069586;28;20037;-42
2022/12/26 09:33:37;;;;;;;21.30;12.27;;;;;;;12.58;49.22;100808.28;5070766;28;20028;-42
2022/12/26 09:36:08;;;;;;;20.50;12.18;;;;;;;12.70;48.72;100815.59;5073741;28;20216;-42
2022/12/26 09:38:35;;;;;;;15.57;10.05;;;;;;;12.61;48.56;100810.56;5073332;28;20028;-42
2022/12/26 09:41:27;;;;;;;18.80;11.10;;;;;;;12.63;48.15;100800.53;5073203;28;20028;-42
2022/12/26 09:44:06;;;;;;;19.35;10.63;;;;;;;12.19;50.04;100802.34;5071129;28;20722;-42
2022/12/26 09:46:51;;;;;;;17.30;9.63;;;;;;;12.72;48.80;100802.06;5067930;28;20495;-41
2022/12/26 09:49:24;;;;;;;15.60;8.25;;;;;;;13.04;47.13;100797.16;5071184;28;20040;-42
2022/12/26 09:51:55;;;;;;;15.80;8.20;;;;;;;12.83;47.73;100798.03;5072930;28;20024;-42
2022/12/26 09:54:36;;;;;;;14.73;9.05;;;;;;;13.08;47.00;100791.25;5072118;28;20109;-43
2022/12/26 09:57:07;;;;;;;14.82;8.77;;;;;;;12.90;46.97;100783.69;5072055;28;20054;-43
2022/12/26 09:59:45;;;;;;;18.17;9.70;;;;;;;13.23;46.95;100792.97;5072233;28;20074;-43
2022/12/26 10:02:23;;;;;;;15.38;9.48;;;;;;;12.86;48.24;100792.31;5071371;28;20028;-43
2022/12/26 10:04:50;;;;;;;19.80;10.05;;;;;;;12.87;47.39;100799.28;5071455;28;20053;-43
2022/12/26 10:07:30;;;;;;;17.45;10.68;;;;;;;12.58;48.41;100784.25;5070310;28;20115;-43
2022/12/26 10:09:59;;;;;;;16.80;11.18;;;;;;;12.91;48.45;100788.03;5069521;28;20078;-43
2022/12/26 10:12:45;;;;;;;21.05;11.10;;;;;;;12.86;48.45;100782.44;5070930;28;20092;-43
2022/12/26 10:15:25;;;;;;;21.05;12.30;;;;;;;12.81;48.59;100790.22;5068743;28;20074;-42
2022/12/26 10:17:53;;;;;;;24.15;12.10;;;;;;;12.13;49.63;100790.56;5068988;28;20563;-42
2022/12/26 10:20:42;;;;;;;19.27;11.80;;;;;;;12.22;50.19;100783.28;5071717;28;20032;-43
2022/12/26 10:23:26;;;;;;;21.55;10.20;;;;;;;12.75;48.02;100782.13;5071291;28;20020;-43
2022/12/26 10:25:58;;;;;;;22.73;12.68;;;;;;;13.01;47.78;100768.16;5069385;28;20020;-42
2022/12/26 10:28:40;;;;;;;22.15;13.02;;;;;;;12.46;48.83;100770.59;5071632;28;20160;-43
2022/12/26 10:31:15;;;;;;;21.35;11.50;;;;;;;12.77;48.28;100769.41;5071388;28;20151;-43
2022/12/26 10:34:13;;;;;;;18.95;12.35;;;;;;;12.29;48.86;100764.66;5071236;28;20103;-43
2022/12/26 10:37:00;;;;;;;16.80;9.18;;;;;;;12.47;48.81;100765.06;5062775;28;20119;-42
2022/12/26 10:39:44;;;;;;;17.08;9.55;;;;;;;12.70;48.14;100761.34;5064415;28;20029;-42
2022/12/26 10:42:20;;;;;;;18.05;9.60;;;;;;;12.90;48.04;100759.66;5059261;28;20469;-42
2022/12/26 10:44:45;;;;;;;20.33;10.57;;;;;;;13.30;47.07;100748.44;5066781;28;20036;-43
2022/12/26 10:47:27;;;;;;;20.33;10.85;;;;;;;13.77;47.84;100746.00;5070804;28;20020;-43
2022/12/26 10:49:53;;;;;;;18.42;11.73;;;;;;;13.38;46.92;100731.41;5071064;28;20028;-43
2022/12/26 10:52:25;;;;;;;19.30;11.48;;;;;;;13.01;46.90;100733.44;5064638;28;20028;-43
2022/12/26 10:54:56;;;;;;;16.35;10.40;;;;;;;12.83;48.13;100724.06;5064405;28;20021;-42
2022/12/26 10:57:23;;;;;;;18.83;12.07;;;;;;;12.90;47.23;100719.59;5069707;28;20016;-43
2022/12/26 10:59:50;;;;;;;21.27;11.82;;;;;;;13.03;47.32;100724.19;5060790;28;20028;-43
2022/12/26 11:02:31;;;;;;;21.70;11.57;;;;;;;13.40;47.36;100724.03;5061858;28;20029;-43
2022/12/26 11:05:04;;;;;;;21.38;13.10;;;;;;;13.73;46.85;100717.97;5056331;28;20108;-42
2022/12/26 11:07:34;;;;;;;20.85;12.65;;;;;;;13.52;46.75;100711.75;5071131;28;20043;-44
2022/12/26 11:10:01;;;;;;;20.67;12.82;;;;;;;13.26;47.03;100702.53;5071115;28;20439;-43
2022/12/26 11:12:32;;;;;;;17.02;10.95;;;;;;;13.29;46.51;100707.50;5070507;28;20433;-43
2022/12/26 11:15:16;;;;;;;19.70;9.75;;;;;;;12.68;48.05;100716.16;5070039;28;20097;-43
2022/12/26 11:17:43;;;;;;;11.60;8.10;;;;;;;12.59;48.53;100708.47;5068751;28;20020;-43
2022/12/26 11:20:14;;;;;;;10.93;6.97;;;;;;;12.16;49.80;100701.31;5069327;28;20052;-42
2022/12/26 11:22:41;;;;;;;11.30;7.15;;;;;;;12.54;49.30;100702.88;5068841;28;20025;-42
2022/12/26 11:25:11;;;;;;;10.93;6.43;;;;;;;13.05;47.93;100705.31;5069775;28;20048;-43
2022/12/26 11:27:42;;;;;;;9.77;6.75;;;;;;;13.27;47.45;100698.03;5069670;28;20082;-43
2022/12/26 11:30:24;;;;;;;7.55;4.93;;;;;;;13.19;47.52;100696.31;5070109;28;20454;-42
2022/12/26 11:33:28;;;;;;;8.55;5.05;;;;;;;12.84;49.03;100685.63;5070336;28;20031;-42
2022/12/26 11:36:17;;;;;;;9.02;5.05;;;;;;;12.88;48.53;100686.91;5070260;28;20464;-43
2022/12/26 11:38:54;;;;;;;8.43;4.90;;;;;;;13.20;48.20;100681.94;5061987;28;20079;-42
2022/12/26 11:41:31;;;;;;;6.43;4.20;;;;;;;13.12;47.21;100682.13;5070285;28;20054;-42
2022/12/26 11:44:09;;;;;;;5.57;3.63;;;;;;;13.06;47.59;100685.56;5070683;28;20028;-43
2022/12/26 11:46:41;;;;;;;5.78;3.75;;;;;;;13.35;47.29;100692.53;5070262;28;20099;-43
2022/12/26 11:49:18;;;;;;;7.85;4.30;;;;;;;13.39;47.56;100685.78;5069636;28;20403;-43
2022/12/26 11:51:47;;;;;;;7.05;4.22;;;;;;;13.45;47.09;100684.97;5070057;28;20032;-44
2022/12/26 11:54:20;;;;;;;5.70;3.73;;;;;;;13.41;46.66;100680.22;5069994;28;20578;-43
2022/12/26 11:56:46;;;;;;;6.65;4.05;;;;;;;13.40;47.36;100682.09;5069000;28;20301;-43
2022/12/26 11:59:19;;;;;;;5.75;3.75;;;;;;;13.66;47.03;100691.22;5069594;28;20020;-43
2022/12/26 12:01:45;;;;;;;5.93;3.45;;;;;;;13.52;46.99;100679.66;5069632;28;20434;-43
2022/12/26 12:04:11;;;;;;;5.68;3.45;;;;;;;13.48;46.80;100673.88;5070373;28;20324;-43
2022/12/26 12:06:55;;;;;;;7.05;3.65;;;;;;;13.04;48.15;100671.56;5070174;28;20372;-43
2022/12/26 12:09:27;;;;;;;5.78;3.53;;;;;;;13.37;47.78;100671.78;5069674;28;20024;-42
2022/12/26 12:12:33;;;;;;;5.18;3.55;;;;;;;13.48;47.33;100673.06;5069853;28;20402;-42
2022/12/26 12:15:23;;;;;;;7.80;3.70;;;;;;;13.58;47.24;100676.19;5049590;28;20485;-42
2022/12/26 12:18:04;;;;;;;5.75;3.45;;;;;;;13.61;47.67;100666.94;5049480;28;20068;-42
2022/12/26 12:20:53;;;;;;;5.50;3.50;;;;;;;13.46;47.35;100667.91;5049374;28;20032;-43
2022/12/26 12:23:37;;;;;;;5.95;3.55;;;;;;;13.40;47.68;100665.19;5049229;28;20527;-42
2022/12/26 12:26:17;;;;;;;4.78;3.40;;;;;;;13.37;47.46;100660.28;5049626;28;20025;-42
2022/12/26 12:29:00;;;;;;;5.95;3.80;;;;;;;13.00;48.71;100665.78;5049463;28;20025;-42
2022/12/26 12:31:49;;;;;;;6.65;4.00;;;;;;;13.42;48.38;100663.16;5056249;28;20028;-42
2022/12/26 12:34:36;;;;;;;6.45;3.75;;;;;;;13.40;48.27;100657.19;5067092;28;20046;-42
2022/12/26 12:37:19;;;;;;;6.00;4.00;;;;;;;13.59;47.74;100663.63;5065674;28;20028;-42
2022/12/26 12:39:59;;;;;;;7.72;3.92;;;;;;;13.59;47.56;100664.44;5066597;28;20027;-41
2022/12/26 12:42:51;;;;;;;7.22;3.97;;;;;;;13.27;48.38;100669.44;5068111;28;20037;-42
2022/12/26 12:45:35;;;;;;;5.82;3.60;;;;;;;13.47;48.28;100663.38;5066561;28;20068;-42
2022/12/26 12:48:37;;;;;;;8.32;4.22;;;;;;;13.63;47.69;100663.03;5066715;28;20119;-42
2022/12/26 12:51:09;;;;;;;6.65;3.63;;;;;;;13.45;47.36;100663.59;5066308;28;20077;-42
2022/12/26 12:53:58;;;;;;;8.00;3.70;;;;;;;13.79;46.22;100661.03;5060521;28;20510;-42
2022/12/26 12:56:33;;;;;;;4.78;3.35;;;;;;;13.64;46.39;100662.00;5068992;28;20033;-43
2022/12/26 12:59:43;;;;;;;4.70;3.53;;;;;;;13.52;46.57;100660.94;5069335;28;20539;-42
2022/12/26 13:02:25;;;;;;;6.00;3.65;;;;;;;13.47;47.11;100653.50;5069246;28;20057;-42
2022/12/26 13:05:02;;;;;;;7.32;4.05;;;;;;;13.51;47.56;100661.97;5067354;28;20095;-42
2022/12/26 13:07:36;;;;;;;6.53;4.10;;;;;;;13.68;47.16;100663.25;5066490;28;20034;-42
2022/12/26 13:10:05;;;;;;;6.63;4.20;;;;;;;13.63;46.85;100670.22;5068040;28;20036;-42
2022/12/26 13:12:37;;;;;;;4.65;3.53;;;;;;;13.95;46.03;100662.50;5068325;28;20024;-42
2022/12/26 13:15:31;;;;;;;5.78;4.00;;;;;;;13.77;46.40;100658.53;5068707;28;20537;-42
2022/12/26 13:18:00;;;;;;;6.72;4.13;;;;;;;13.58;46.87;100652.13;5068673;28;20068;-42
2022/12/26 13:20:43;;;;;;;6.40;3.90;;;;;;;13.56;47.18;100642.66;5069061;28;20029;-43
2022/12/26 13:26:18;;;;;;;6.63;4.05;;;;;;;13.42;47.65;100647.97;5068906;28;20040;-42
2022/12/26 13:29:15;;;;;;;7.00;4.25;;;;;;;13.45;47.84;100644.88;5068846;28;20024;-42
2022/12/26 13:31:41;;;;;;;7.10;3.90;;;;;;;13.54;46.86;100645.53;5068738;28;20115;-42
2022/12/26 13:34:10;;;;;;;5.70;3.47;;;;;;;13.42;47.72;100649.78;5068696;28;20150;-43
2022/12/26 13:36:51;;;;;;;6.60;4.10;;;;;;;13.27;47.75;100650.75;5068510;28;20032;-43
2022/12/26 13:39:26;;;;;;;5.90;4.20;;;;;;;13.44;47.52;100647.72;5068467;28;20154;-43
2022/12/26 13:44:38;;;;;;;5.97;3.97;;;;;;;13.23;47.83;100648.66;5068951;28;20311;-43
2022/12/26 13:47:03;;;;;;;6.38;3.80;;;;;;;13.15;48.29;100657.66;5068319;28;20029;-44
2022/12/26 13:49:39;;;;;;;6.32;4.22;;;;;;;12.75;48.93;100649.41;5068545;28;20408;-43
2022/12/26 13:52:10;;;;;;;5.20;3.78;;;;;;;12.58;49.86;100648.06;5069212;28;20040;-43
2022/12/26 13:54:57;;;;;;;6.03;4.32;;;;;;;12.75;49.52;100648.59;5068878;28;20028;-43